Time;durP1;ratioP1;P1;durP2;ratioP2;P2;SDS_P1;SDS_P2;PMS_P1;PMS_P2;Temp;Humidity;BMP_temperature;BMP_pressure;BME280_temperature;BME280_humidity;BME280_pressure;Samples;Min_cycle;Max_cycle;Signal;HPM_P1;HPM_P2
2023/09/03 00:00:46;;;;;;;6.93;6.33;;;14.40;99.90;;;;;;5034521;28;20621;-60
2023/09/03 00:03:14;;;;;;;7.67;6.70;;;14.40;99.90;;;;;;5039860;28;20516;-59
2023/09/03 00:05:49;;;;;;;6.73;6.13;;;14.40;99.90;;;;;;5029626;28;20495;-60
2023/09/03 00:08:17;;;;;;;7.03;6.33;;;14.40;99.90;;;;;;5033736;28;20470;-60
2023/09/03 00:10:51;;;;;;;6.50;6.00;;;14.40;99.90;;;;;;5042451;28;20478;-59
2023/09/03 00:13:19;;;;;;;6.93;6.23;;;14.40;99.90;;;;;;5027564;28;20557;-59
2023/09/03 00:15:47;;;;;;;6.53;5.93;;;14.40;99.90;;;;;;5032359;28;20510;-60
2023/09/03 00:18:15;;;;;;;7.00;6.40;;;14.40;99.90;;;;;;5040945;28;20559;-59
2023/09/03 00:20:55;;;;;;;6.47;5.93;;;14.40;99.90;;;;;;5040067;28;20502;-61
2023/09/03 00:23:23;;;;;;;6.77;5.87;;;14.40;99.90;;;;;;5028538;28;20479;-59
2023/09/03 00:25:53;;;;;;;6.80;6.20;;;14.40;99.90;;;;;;5040009;28;20490;-60
2023/09/03 00:28:21;;;;;;;6.83;5.37;;;14.40;99.90;;;;;;5041832;28;21031;-60
2023/09/03 00:31:04;;;;;;;6.80;6.20;;;14.40;99.90;;;;;;5038199;28;20903;-60
2023/09/03 00:33:32;;;;;;;5.70;5.10;;;14.40;99.90;;;;;;5041062;28;20470;-60
2023/09/03 00:36:01;;;;;;;5.80;5.30;;;14.30;99.90;;;;;;5036591;28;20875;-60
2023/09/03 00:38:30;;;;;;;6.33;5.73;;;14.30;99.90;;;;;;5037617;28;20514;-60
2023/09/03 00:40:59;;;;;;;6.20;5.67;;;14.30;99.90;;;;;;5040535;28;20896;-60
2023/09/03 00:43:28;;;;;;;6.10;5.37;;;14.30;99.90;;;;;;5038530;28;20478;-60
2023/09/03 00:45:56;;;;;;;6.03;5.47;;;14.20;99.90;;;;;;5033004;28;20510;-60
2023/09/03 00:48:28;;;;;;;7.03;6.33;;;14.20;99.90;;;;;;5037707;28;20475;-60
2023/09/03 00:50:59;;;;;;;7.17;6.50;;;14.20;99.90;;;;;;5038350;28;20898;-60
2023/09/03 00:53:30;;;;;;;6.50;5.97;;;14.20;99.90;;;;;;5036289;28;20557;-60
2023/09/03 00:55:59;;;;;;;7.07;6.37;;;14.20;99.90;;;;;;5036133;28;20482;-59
2023/09/03 00:58:28;;;;;;;6.97;6.27;;;14.20;99.90;;;;;;5036013;28;20614;-60
2023/09/03 01:00:56;;;;;;;7.60;6.80;;;14.10;99.90;;;;;;5038504;28;20467;-59
2023/09/03 01:03:25;;;;;;;7.50;6.90;;;14.10;99.90;;;;;;5035007;28;20479;-60
2023/09/03 01:05:54;;;;;;;8.03;7.23;;;14.10;99.90;;;;;;5035825;28;20491;-59
2023/09/03 01:08:22;;;;;;;7.20;6.57;;;14.10;99.90;;;;;;5035481;28;20611;-60
2023/09/03 01:11:03;;;;;;;7.93;7.27;;;14.10;99.90;;;;;;5036145;28;20477;-59
2023/09/03 01:13:38;;;;;;;7.63;6.93;;;14.10;99.90;;;;;;5041209;28;20474;-60
2023/09/03 01:16:10;;;;;;;7.83;7.13;;;14.10;99.90;;;;;;5030038;28;20489;-60
2023/09/03 01:18:39;;;;;;;7.70;7.00;;;14.10;99.90;;;;;;5027800;28;20542;-59
2023/09/03 01:21:39;;;;;;;8.00;7.30;;;14.10;99.90;;;;;;5038909;28;20510;-60
2023/09/03 01:24:28;;;;;;;8.70;7.90;;;14.10;99.90;;;;;;5009078;28;20466;-60
2023/09/03 01:27:14;;;;;;;9.27;8.30;;;14.10;99.90;;;;;;5031986;28;20496;-60
2023/09/03 01:29:44;;;;;;;9.20;8.30;;;14.10;99.90;;;;;;5040614;28;20604;-60
2023/09/03 01:32:13;;;;;;;8.40;7.60;;;14.10;99.90;;;;;;5032933;28;20478;-60
2023/09/03 01:34:42;;;;;;;8.27;7.47;;;14.10;99.90;;;;;;5042501;28;20956;-60
2023/09/03 01:37:11;;;;;;;8.00;7.30;;;14.10;99.90;;;;;;5042717;28;20488;-59
2023/09/03 01:39:40;;;;;;;10.83;8.63;;;14.10;99.90;;;;;;5038633;28;20470;-60
2023/09/03 01:42:08;;;;;;;8.90;8.20;;;14.10;99.90;;;;;;5038679;28;20498;-59
2023/09/03 01:44:36;;;;;;;9.30;7.37;;;14.10;99.90;;;;;;5039498;28;21132;-60
2023/09/03 01:47:15;;;;;;;8.40;7.60;;;14.00;99.90;;;;;;5041113;28;20585;-60
2023/09/03 01:49:50;;;;;;;8.70;7.80;;;14.00;99.90;;;;;;5040348;28;20579;-60
2023/09/03 01:52:25;;;;;;;8.40;7.47;;;14.00;99.90;;;;;;5036641;28;20726;-61
2023/09/03 01:54:57;;;;;;;9.20;7.70;;;14.00;99.90;;;;;;5041315;28;20978;-61
2023/09/03 01:57:30;;;;;;;7.93;7.13;;;14.00;99.90;;;;;;5037983;28;20463;-59
2023/09/03 02:00:02;;;;;;;8.00;7.03;;;14.00;99.90;;;;;;5040332;28;20470;-61
2023/09/03 02:02:33;;;;;;;8.63;7.83;;;14.00;99.90;;;;;;5034177;28;20590;-61
2023/09/03 02:05:01;;;;;;;7.93;7.23;;;14.00;99.90;;;;;;5035076;28;20500;-61
2023/09/03 02:07:29;;;;;;;8.07;7.37;;;14.00;99.90;;;;;;5039745;28;20569;-60
2023/09/03 02:09:57;;;;;;;8.53;7.57;;;14.00;99.90;;;;;;5041668;28;20458;-61
2023/09/03 02:12:25;;;;;;;9.50;8.07;;;13.90;99.90;;;;;;5040179;28;20557;-61
2023/09/03 02:14:53;;;;;;;9.13;7.53;;;13.90;99.90;;;;;;5041134;28;20549;-61
2023/09/03 02:17:21;;;;;;;12.10;8.50;;;13.90;99.90;;;;;;5027531;28;20470;-60
2023/09/03 02:19:52;;;;;;;8.63;7.93;;;13.90;99.90;;;;;;5042013;28;20568;-61
2023/09/03 02:22:20;;;;;;;8.60;7.80;;;13.90;99.90;;;;;;5035062;28;20527;-60
2023/09/03 02:24:50;;;;;;;8.37;7.43;;;13.80;99.90;;;;;;5034747;28;20920;-60
2023/09/03 02:27:18;;;;;;;8.23;7.47;;;13.80;99.90;;;;;;5038791;28;20494;-60
2023/09/03 02:29:46;;;;;;;11.07;8.33;;;13.80;99.90;;;;;;5035720;28;20558;-60
2023/09/03 02:32:14;;;;;;;8.63;7.63;;;13.80;99.90;;;;;;5029693;28;21069;-59
2023/09/03 02:34:42;;;;;;;9.30;7.97;;;13.80;99.90;;;;;;5035147;28;20565;-61
2023/09/03 02:37:12;;;;;;;8.60;7.77;;;13.70;99.90;;;;;;5038586;28;20566;-59
2023/09/03 02:39:41;;;;;;;9.20;8.40;;;13.70;99.90;;;;;;5039160;28;20640;-59
2023/09/03 02:42:09;;;;;;;8.27;7.57;;;13.70;99.90;;;;;;5035128;28;20971;-60
2023/09/03 02:44:37;;;;;;;9.10;8.20;;;13.70;99.90;;;;;;5039705;28;23543;-61
2023/09/03 02:47:05;;;;;;;8.80;8.00;;;13.70;99.90;;;;;;5039262;28;20574;-59
2023/09/03 02:49:33;;;;;;;9.10;7.50;;;13.70;99.90;;;;;;5032579;28;20928;-60
2023/09/03 02:52:01;;;;;;;8.43;7.73;;;13.70;99.90;;;;;;5037607;28;20466;-60
2023/09/03 02:54:30;;;;;;;9.23;8.43;;;13.70;99.90;;;;;;5036750;28;21491;-60
2023/09/03 02:56:58;;;;;;;9.73;8.10;;;13.70;99.90;;;;;;5038351;28;20547;-60
2023/09/03 02:59:28;;;;;;;8.77;7.90;;;13.70;99.90;;;;;;5039621;28;20466;-61
2023/09/03 03:01:56;;;;;;;8.53;7.83;;;13.70;99.90;;;;;;5038820;28;20502;-61
2023/09/03 03:04:24;;;;;;;9.07;8.23;;;13.70;99.90;;;;;;5038182;28;20575;-60
2023/09/03 03:06:52;;;;;;;9.97;9.00;;;13.70;99.90;;;;;;5036487;28;20468;-61
2023/09/03 03:09:20;;;;;;;9.47;8.53;;;13.70;99.90;;;;;;5039472;28;20502;-60
2023/09/03 03:11:50;;;;;;;9.60;8.70;;;13.70;99.90;;;;;;5039992;28;21887;-60
2023/09/03 03:14:18;;;;;;;10.17;9.17;;;13.70;99.90;;;;;;5030974;28;20484;-60
2023/09/03 03:16:46;;;;;;;9.60;8.60;;;13.70;99.90;;;;;;5036802;28;20564;-60
2023/09/03 03:19:14;;;;;;;10.90;9.60;;;13.70;99.90;;;;;;5036451;28;20959;-60
2023/09/03 03:21:42;;;;;;;10.23;9.30;;;13.70;99.90;;;;;;5041540;28;20962;-61
2023/09/03 03:24:10;;;;;;;10.23;9.17;;;13.70;99.90;;;;;;5036628;28;20459;-60
2023/09/03 03:26:38;;;;;;;10.23;9.17;;;13.70;99.90;;;;;;5040686;28;20924;-61
2023/09/03 03:29:09;;;;;;;9.77;8.93;;;13.70;99.90;;;;;;5039458;28;20613;-61
2023/09/03 03:31:37;;;;;;;10.20;9.20;;;13.70;99.90;;;;;;5038890;28;20987;-61
2023/09/03 03:34:05;;;;;;;9.83;8.93;;;13.70;99.90;;;;;;5038168;28;20481;-60
2023/09/03 03:36:33;;;;;;;9.87;9.07;;;13.70;99.90;;;;;;5035902;28;20676;-61
2023/09/03 03:39:01;;;;;;;10.33;9.33;;;13.70;99.90;;;;;;5038176;28;20462;-60
2023/09/03 03:41:29;;;;;;;10.40;9.50;;;13.70;99.90;;;;;;5033523;28;20911;-60
2023/09/03 03:43:57;;;;;;;10.07;9.03;;;13.60;99.90;;;;;;5037895;28;20565;-60
2023/09/03 03:46:26;;;;;;;10.33;9.10;;;13.60;99.90;;;;;;5040277;28;20615;-60
2023/09/03 03:48:54;;;;;;;10.37;9.37;;;13.60;99.90;;;;;;5032819;28;20530;-60
2023/09/03 03:51:22;;;;;;;9.20;8.47;;;13.50;99.90;;;;;;5039450;28;20510;-61
2023/09/03 03:53:51;;;;;;;9.17;8.37;;;13.50;99.90;;;;;;5036424;28;20506;-61
2023/09/03 03:56:19;;;;;;;9.07;8.27;;;13.40;99.90;;;;;;5032989;28;21013;-60
2023/09/03 03:58:47;;;;;;;9.67;8.70;;;13.40;99.90;;;;;;5041215;28;21022;-60
2023/09/03 04:01:16;;;;;;;9.87;9.00;;;13.40;99.90;;;;;;5030854;28;20577;-60
2023/09/03 04:03:47;;;;;;;10.57;9.47;;;13.40;99.90;;;;;;5034451;28;20979;-60
2023/09/03 04:06:15;;;;;;;9.30;8.40;;;13.30;99.90;;;;;;5034393;28;21169;-60
2023/09/03 04:08:44;;;;;;;9.53;8.50;;;13.30;99.90;;;;;;5040470;28;20498;-61
2023/09/03 04:11:13;;;;;;;10.17;9.17;;;13.30;99.90;;;;;;5040765;28;20470;-61
2023/09/03 04:13:41;;;;;;;9.90;8.90;;;13.30;99.90;;;;;;5034872;28;20546;-59
2023/09/03 04:16:11;;;;;;;9.70;8.90;;;13.30;99.90;;;;;;5036617;28;21344;-60
2023/09/03 04:18:39;;;;;;;9.43;8.63;;;13.20;99.90;;;;;;5036874;28;20463;-59
2023/09/03 04:21:09;;;;;;;10.13;9.30;;;13.20;99.90;;;;;;5038965;28;20466;-61
2023/09/03 04:23:37;;;;;;;9.87;8.97;;;13.20;99.90;;;;;;5034280;28;21006;-61
2023/09/03 04:26:05;;;;;;;10.17;9.27;;;13.20;99.90;;;;;;5033085;28;21241;-59
2023/09/03 04:28:33;;;;;;;9.87;9.07;;;13.20;99.90;;;;;;5036190;28;20867;-61
2023/09/03 04:31:04;;;;;;;9.67;8.67;;;13.20;99.90;;;;;;5034019;28;20554;-61
2023/09/03 04:33:32;;;;;;;10.50;9.57;;;13.20;99.90;;;;;;5027830;28;20486;-61
2023/09/03 04:36:02;;;;;;;9.97;8.97;;;13.20;99.90;;;;;;5035144;28;21031;-61
2023/09/03 04:38:32;;;;;;;8.90;8.10;;;13.20;99.90;;;;;;5035933;28;20553;-60
2023/09/03 04:41:05;;;;;;;9.90;8.80;;;13.20;99.90;;;;;;5038406;28;20498;-59
2023/09/03 04:43:33;;;;;;;9.30;8.50;;;13.20;99.90;;;;;;5032864;28;20470;-61
2023/09/03 04:46:01;;;;;;;9.20;8.50;;;13.10;99.90;;;;;;5041105;28;20490;-61
2023/09/03 04:48:29;;;;;;;9.33;8.43;;;13.10;99.90;;;;;;5041821;28;20490;-60
2023/09/03 04:51:03;;;;;;;9.57;8.77;;;13.10;99.90;;;;;;5039972;28;20924;-60
2023/09/03 04:53:33;;;;;;;9.50;8.50;;;13.10;99.90;;;;;;5041837;28;20479;-61
2023/09/03 04:56:01;;;;;;;9.60;8.67;;;13.10;99.90;;;;;;5044703;28;20818;-60
2023/09/03 04:58:29;;;;;;;10.03;9.13;;;13.10;99.90;;;;;;5040751;28;20494;-60
2023/09/03 05:00:57;;;;;;;9.47;8.60;;;13.10;99.90;;;;;;5036122;28;20549;-60
2023/09/03 05:03:25;;;;;;;10.00;9.00;;;13.10;99.90;;;;;;5043488;28;20493;-61
2023/09/03 05:05:53;;;;;;;9.63;8.67;;;13.10;99.90;;;;;;5039587;28;20947;-61
2023/09/03 05:08:21;;;;;;;9.93;9.03;;;13.10;99.90;;;;;;5036036;28;22906;-60
2023/09/03 05:10:51;;;;;;;9.27;8.47;;;13.10;99.90;;;;;;5044088;28;20466;-61
2023/09/03 05:13:19;;;;;;;8.90;8.17;;;13.10;99.90;;;;;;5037017;28;20550;-59
2023/09/03 05:15:50;;;;;;;9.30;8.40;;;13.10;99.90;;;;;;5035031;28;20526;-60
2023/09/03 05:18:18;;;;;;;8.93;8.13;;;13.10;99.90;;;;;;5037532;28;20561;-59
2023/09/03 05:20:46;;;;;;;9.60;8.70;;;13.10;99.90;;;;;;5040745;28;20493;-60
2023/09/03 05:23:14;;;;;;;8.63;7.83;;;13.10;99.90;;;;;;5045093;28;20474;-59
2023/09/03 05:25:42;;;;;;;9.17;8.27;;;13.10;99.90;;;;;;5037089;28;20522;-60
2023/09/03 05:28:13;;;;;;;9.03;8.13;;;13.10;99.90;;;;;;5044397;28;20565;-61
2023/09/03 05:30:41;;;;;;;9.07;8.27;;;13.10;99.90;;;;;;5039103;28;20478;-58
2023/09/03 05:33:09;;;;;;;9.00;8.20;;;13.20;99.90;;;;;;5042391;28;20482;-58
2023/09/03 05:35:37;;;;;;;8.10;7.40;;;13.20;99.90;;;;;;5032232;28;20983;-57
2023/09/03 05:38:05;;;;;;;10.00;8.13;;;13.20;99.90;;;;;;5040386;28;20477;-58
2023/09/03 05:40:33;;;;;;;7.60;7.00;;;13.20;99.90;;;;;;5036682;28;21049;-60
2023/09/03 05:43:01;;;;;;;7.60;6.90;;;13.20;99.90;;;;;;5037915;28;20629;-58
2023/09/03 05:45:30;;;;;;;8.60;7.80;;;13.30;99.90;;;;;;5032222;28;20486;-59
2023/09/03 05:47:59;;;;;;;7.87;7.13;;;13.30;99.90;;;;;;5039823;28;20546;-59
2023/09/03 05:50:31;;;;;;;8.37;7.57;;;13.40;99.90;;;;;;5027226;28;20609;-57
2023/09/03 05:52:59;;;;;;;13.00;7.20;;;13.40;99.90;;;;;;5039642;28;20500;-59
2023/09/03 05:55:27;;;;;;;7.30;6.70;;;13.40;99.90;;;;;;5037051;28;21238;-59
2023/09/03 05:57:55;;;;;;;7.10;6.50;;;13.40;99.90;;;;;;5038600;28;20475;-59
2023/09/03 06:00:23;;;;;;;9.70;7.50;;;13.50;99.90;;;;;;5033921;28;20457;-59
2023/09/03 06:02:54;;;;;;;7.40;6.80;;;13.50;99.90;;;;;;5035907;28;20474;-59
2023/09/03 06:05:22;;;;;;;6.60;5.87;;;13.60;99.90;;;;;;5039380;28;20517;-61
2023/09/03 06:07:50;;;;;;;6.93;6.33;;;13.70;99.90;;;;;;5042028;28;20805;-59
2023/09/03 06:10:18;;;;;;;7.33;6.43;;;13.70;99.90;;;;;;5034383;28;20486;-59
2023/09/03 06:12:48;;;;;;;6.67;5.90;;;13.80;99.90;;;;;;5039457;28;20502;-59
2023/09/03 06:15:16;;;;;;;7.70;5.50;;;13.80;99.90;;;;;;5033511;28;21071;-59
2023/09/03 06:17:48;;;;;;;6.13;5.63;;;13.80;99.90;;;;;;5025982;28;20553;-59
2023/09/03 06:20:18;;;;;;;6.13;5.63;;;13.90;99.90;;;;;;5033472;28;20470;-57
2023/09/03 06:22:46;;;;;;;5.80;5.30;;;14.00;99.90;;;;;;5038426;28;20524;-58
2023/09/03 06:25:14;;;;;;;5.73;5.07;;;14.00;99.90;;;;;;5038750;28;21066;-59
2023/09/03 06:27:42;;;;;;;6.50;5.00;;;14.20;99.90;;;;;;5043306;28;20536;-61
2023/09/03 06:30:11;;;;;;;6.07;5.47;;;14.20;99.90;;;;;;5029624;28;21266;-61
2023/09/03 06:32:39;;;;;;;4.60;4.20;;;14.30;99.90;;;;;;5029295;28;20470;-59
2023/09/03 06:35:08;;;;;;;5.10;4.60;;;14.40;99.90;;;;;;5027615;28;21079;-60
2023/09/03 06:37:37;;;;;;;4.43;4.03;;;14.50;99.90;;;;;;5036024;28;20565;-59
2023/09/03 06:40:07;;;;;;;4.57;4.07;;;14.60;99.90;;;;;;5040307;28;20470;-59
2023/09/03 06:42:34;;;;;;;4.30;4.00;;;14.70;99.90;;;;;;5030488;28;20475;-60
2023/09/03 06:45:03;;;;;;;4.60;3.60;;;14.80;99.90;;;;;;5032002;28;20495;-58
2023/09/03 06:47:31;;;;;;;3.40;3.10;;;14.90;99.90;;;;;;5030331;28;20936;-58
2023/09/03 06:49:59;;;;;;;4.00;3.67;;;15.00;99.90;;;;;;5035013;28;20491;-59
2023/09/03 06:52:27;;;;;;;5.07;3.20;;;15.10;99.90;;;;;;5020589;28;20466;-59
2023/09/03 06:54:56;;;;;;;3.20;3.00;;;15.10;99.90;;;;;;5025753;28;20908;-60
2023/09/03 06:57:24;;;;;;;4.67;3.90;;;15.20;99.90;;;;;;5031984;28;20525;-59
2023/09/03 06:59:56;;;;;;;3.40;3.10;;;15.30;99.90;;;;;;5042427;28;20500;-59
2023/09/03 07:02:25;;;;;;;4.10;2.60;;;15.30;99.90;;;;;;5029332;28;20478;-58
2023/09/03 07:04:56;;;;;;;3.23;2.93;;;15.30;99.90;;;;;;5018745;28;20474;-59
2023/09/03 07:07:24;;;;;;;2.60;2.40;;;15.40;99.90;;;;;;5033066;28;20532;-59
2023/09/03 07:09:52;;;;;;;2.93;2.70;;;15.50;99.90;;;;;;5019937;28;21122;-59
2023/09/03 07:12:21;;;;;;;2.63;2.50;;;15.50;99.90;;;;;;5032623;28;20581;-59
2023/09/03 07:14:50;;;;;;;3.13;2.83;;;15.60;99.90;;;;;;5040135;28;20539;-60
2023/09/03 07:17:18;;;;;;;3.50;2.90;;;15.60;99.90;;;;;;5040085;28;20571;-58
2023/09/03 07:19:46;;;;;;;3.13;2.87;;;15.80;99.90;;;;;;5038136;28;20561;-59
2023/09/03 07:22:14;;;;;;;2.30;2.10;;;15.80;99.90;;;;;;5035975;28;21608;-59
2023/09/03 07:24:42;;;;;;;2.90;2.57;;;16.00;99.90;;;;;;5035422;28;20974;-59
2023/09/03 07:27:10;;;;;;;3.20;2.60;;;16.10;99.90;;;;;;5035582;28;20533;-58
2023/09/03 07:29:39;;;;;;;2.80;2.60;;;16.30;99.90;;;;;;5039224;28;20490;-59
2023/09/03 07:32:07;;;;;;;2.33;2.13;;;16.40;99.90;;;;;;5028011;28;20574;-60
2023/09/03 07:34:35;;;;;;;2.53;2.07;;;16.40;99.90;;;;;;5027070;28;20585;-59
2023/09/03 07:37:03;;;;;;;2.43;2.20;;;16.50;99.90;;;;;;5030406;28;20508;-58
2023/09/03 07:39:35;;;;;;;2.53;2.27;;;16.60;99.90;;;;;;5034413;28;20517;-59
2023/09/03 07:42:03;;;;;;;3.67;2.27;;;16.70;99.90;;;;;;5036927;28;20769;-59
2023/09/03 07:44:31;;;;;;;2.20;2.10;;;16.80;99.90;;;;;;5031421;28;20561;-60
2023/09/03 07:47:01;;;;;;;2.03;1.93;;;16.90;99.90;;;;;;5025003;28;20549;-60
2023/09/03 07:49:29;;;;;;;2.30;2.17;;;16.90;99.90;;;;;;5033064;28;20532;-60
2023/09/03 07:51:57;;;;;;;2.10;2.00;;;17.00;99.90;;;;;;5017464;28;20524;-59
2023/09/03 07:54:25;;;;;;;2.20;2.10;;;17.10;99.90;;;;;;5036120;28;20565;-60
2023/09/03 07:56:54;;;;;;;2.30;2.10;;;17.10;99.90;;;;;;5030431;28;20676;-59
2023/09/03 07:59:23;;;;;;;3.00;2.17;;;17.20;99.90;;;;;;5028294;28;21137;-59
2023/09/03 08:01:50;;;;;;;3.47;2.00;;;17.20;99.90;;;;;;5014498;28;20911;-59
2023/09/03 08:04:23;;;;;;;2.40;2.20;;;17.30;99.90;;;;;;5018481;28;20525;-60
2023/09/03 08:06:51;;;;;;;3.20;2.40;;;17.30;99.90;;;;;;5039483;28;20520;-62
2023/09/03 08:09:23;;;;;;;2.63;1.93;;;17.40;99.90;;;;;;5041049;28;20569;-60
2023/09/03 08:11:52;;;;;;;2.00;1.90;;;17.40;99.90;;;;;;5045947;28;20584;-59
2023/09/03 08:14:20;;;;;;;2.47;2.17;;;17.50;99.90;;;;;;5046279;28;20524;-60
2023/09/03 08:16:48;;;;;;;1.93;1.83;;;17.60;99.90;;;;;;5023810;28;20490;-60
2023/09/03 08:19:16;;;;;;;2.23;2.03;;;17.70;99.90;;;;;;5023152;28;20975;-59
2023/09/03 08:21:47;;;;;;;3.30;2.60;;;17.70;99.90;;;;;;5024123;28;20727;-60
2023/09/03 08:24:15;;;;;;;2.33;2.13;;;17.70;99.90;;;;;;5019639;28;20481;-61
2023/09/03 08:26:43;;;;;;;3.53;2.37;;;17.70;99.90;;;;;;5026860;28;20478;-59
2023/09/03 08:29:11;;;;;;;3.37;2.20;;;17.80;99.90;;;;;;5031932;28;20565;-60
2023/09/03 08:31:39;;;;;;;2.40;2.03;;;17.80;99.90;;;;;;5021225;28;20588;-60
2023/09/03 08:34:07;;;;;;;2.30;2.10;;;17.90;99.90;;;;;;5015220;28;20785;-61
2023/09/03 08:36:35;;;;;;;2.73;2.10;;;17.90;99.90;;;;;;5017402;28;20501;-60
2023/09/03 08:39:06;;;;;;;2.43;2.00;;;18.00;99.90;;;;;;5008378;28;20482;-59
2023/09/03 08:41:36;;;;;;;2.17;2.07;;;18.00;99.90;;;;;;5019732;28;21070;-60
2023/09/03 08:44:09;;;;;;;2.20;2.00;;;18.10;99.90;;;;;;5021876;28;20478;-61
2023/09/03 08:46:38;;;;;;;4.60;2.30;;;18.10;99.90;;;;;;5014544;28;20483;-60
2023/09/03 08:49:07;;;;;;;2.40;2.20;;;18.30;99.90;;;;;;5020489;28;20506;-60
2023/09/03 08:51:36;;;;;;;2.37;2.20;;;18.40;99.90;;;;;;5031487;28;20552;-60
2023/09/03 08:54:07;;;;;;;3.40;2.03;;;18.50;99.90;;;;;;5028316;28;20580;-60
2023/09/03 08:56:35;;;;;;;2.33;2.13;;;18.60;99.90;;;;;;5025089;28;20486;-60
2023/09/03 08:59:03;;;;;;;2.20;2.00;;;18.70;99.90;;;;;;5028391;28;21287;-59
2023/09/03 09:01:32;;;;;;;2.43;2.23;;;18.70;99.90;;;;;;5020072;28;21461;-60
2023/09/03 09:04:02;;;;;;;2.30;2.20;;;18.80;99.90;;;;;;5027351;28;20470;-60
2023/09/03 09:06:32;;;;;;;3.70;2.57;;;18.90;99.90;;;;;;5033545;28;20577;-62
2023/09/03 09:09:00;;;;;;;2.90;2.20;;;19.00;99.90;;;;;;5024644;28;20607;-60
2023/09/03 09:11:35;;;;;;;2.53;1.90;;;19.10;99.90;;;;;;5030401;28;20504;-60
2023/09/03 09:14:09;;;;;;;2.37;2.17;;;19.10;99.90;;;;;;5029226;28;20575;-60
2023/09/03 09:16:37;;;;;;;2.23;2.03;;;19.10;99.90;;;;;;5035223;28;20857;-60
2023/09/03 09:19:05;;;;;;;2.27;2.07;;;19.20;99.90;;;;;;5037243;28;20477;-61
2023/09/03 09:21:33;;;;;;;2.30;2.13;;;19.10;99.90;;;;;;5036394;28;20553;-60
2023/09/03 09:24:02;;;;;;;2.17;2.07;;;19.10;99.90;;;;;;5038635;28;20557;-60
2023/09/03 09:26:33;;;;;;;2.80;2.20;;;19.10;99.90;;;;;;5028919;28;20482;-59
2023/09/03 09:29:02;;;;;;;2.60;2.40;;;19.10;99.90;;;;;;5033208;28;20501;-61
2023/09/03 09:31:31;;;;;;;2.00;1.90;;;19.00;99.90;;;;;;5038594;28;20888;-60
2023/09/03 09:34:00;;;;;;;3.37;2.20;;;19.10;99.90;;;;;;5039903;28;20486;-60
2023/09/03 09:36:30;;;;;;;4.63;2.50;;;19.20;99.90;;;;;;5032734;28;20513;-59
2023/09/03 09:39:06;;;;;;;2.37;2.17;;;19.30;99.90;;;;;;5036217;28;20991;-61
2023/09/03 09:41:37;;;;;;;4.17;2.20;;;19.30;99.90;;;;;;5037438;28;20850;-61
2023/09/03 09:44:10;;;;;;;2.90;2.53;;;19.40;99.90;;;;;;5036177;28;20569;-60
2023/09/03 09:46:39;;;;;;;1.93;1.70;;;19.50;99.90;;;;;;5038014;28;20485;-61
2023/09/03 09:49:08;;;;;;;2.20;2.10;;;19.70;99.90;;;;;;5037873;28;20480;-60
2023/09/03 09:51:35;;;;;;;2.80;2.60;;;19.70;99.90;;;;;;5036841;28;20963;-59
2023/09/03 09:54:05;;;;;;;2.40;2.20;;;19.80;99.90;;;;;;5035151;28;20898;-61
2023/09/03 09:56:35;;;;;;;3.10;2.07;;;19.80;99.90;;;;;;5039415;28;20665;-60
2023/09/03 09:59:04;;;;;;;2.00;1.90;;;19.80;99.90;;;;;;5037700;28;20478;-60
2023/09/03 10:01:47;;;;;;;2.60;2.10;;;19.90;99.90;;;;;;5036223;28;20544;-60
2023/09/03 10:04:26;;;;;;;2.30;1.97;;;19.90;99.90;;;;;;5044320;28;20998;-60
2023/09/03 10:06:55;;;;;;;3.13;2.37;;;19.90;99.90;;;;;;5025740;28;20587;-60
2023/09/03 10:09:23;;;;;;;2.50;2.00;;;20.00;99.90;;;;;;5029109;28;20553;-58
2023/09/03 10:11:52;;;;;;;2.83;2.03;;;20.00;99.90;;;;;;5036926;28;20491;-60
2023/09/03 10:14:20;;;;;;;3.00;2.17;;;20.00;99.90;;;;;;5034954;28;20956;-61
2023/09/03 10:16:50;;;;;;;2.83;2.40;;;20.10;99.90;;;;;;5024807;28;20575;-60
2023/09/03 10:19:20;;;;;;;3.23;2.30;;;20.10;99.90;;;;;;5026398;28;20485;-58
2023/09/03 10:21:51;;;;;;;2.93;2.57;;;20.10;99.90;;;;;;5023599;28;20527;-60
2023/09/03 10:24:24;;;;;;;2.30;2.20;;;20.00;99.90;;;;;;5036861;28;20498;-62
2023/09/03 10:26:58;;;;;;;2.10;2.00;;;20.00;99.90;;;;;;5024859;28;20627;-60
2023/09/03 10:29:29;;;;;;;2.40;2.20;;;20.00;99.90;;;;;;5024941;28;20471;-60
2023/09/03 10:32:01;;;;;;;2.63;2.03;;;20.10;99.90;;;;;;5029140;28;20514;-61
2023/09/03 10:34:30;;;;;;;2.87;2.43;;;20.10;99.90;;;;;;5037149;28;20494;-59
2023/09/03 10:37:07;;;;;;;3.10;2.27;;;20.10;99.90;;;;;;5031737;28;20528;-59
2023/09/03 10:39:35;;;;;;;3.03;2.67;;;20.20;99.90;;;;;;5033345;28;20548;-60
2023/09/03 10:42:30;;;;;;;2.93;2.33;;;20.30;99.90;;;;;;5028495;28;20479;-59
2023/09/03 10:44:59;;;;;;;2.77;2.50;;;20.50;99.90;;;;;;5030981;28;20505;-60
2023/09/03 10:47:28;;;;;;;2.40;2.20;;;20.50;99.90;;;;;;5030220;28;20498;-58
2023/09/03 10:49:56;;;;;;;2.50;2.13;;;20.60;99.90;;;;;;5034784;28;20485;-60
2023/09/03 10:52:40;;;;;;;2.20;2.10;;;20.80;99.90;;;;;;5035567;28;20548;-60
2023/09/03 10:55:16;;;;;;;2.57;2.20;;;20.90;99.90;;;;;;5030809;28;20518;-60
2023/09/03 10:57:46;;;;;;;2.13;1.93;;;20.90;99.90;;;;;;5035019;28;20611;-60
2023/09/03 11:00:21;;;;;;;2.07;1.87;;;21.00;99.90;;;;;;5037320;28;20657;-60
2023/09/03 11:02:49;;;;;;;2.20;2.10;;;21.20;99.90;;;;;;5039881;28;20942;-61
2023/09/03 11:05:23;;;;;;;2.90;2.70;;;21.10;99.90;;;;;;5034519;28;20525;-60
2023/09/03 11:08:29;;;;;;;2.27;2.10;;;21.20;99.90;;;;;;5034676;28;20489;-60
2023/09/03 11:10:58;;;;;;;2.10;2.00;;;21.20;99.90;;;;;;5039778;28;20485;-61
2023/09/03 11:13:28;;;;;;;2.60;1.93;;;21.10;99.90;;;;;;5034100;28;20581;-61
2023/09/03 11:16:06;;;;;;;1.83;1.73;;;21.00;99.90;;;;;;5031826;28;20517;-61
2023/09/03 11:18:34;;;;;;;2.07;1.93;;;20.90;99.90;;;;;;5030147;28;20471;-61
2023/09/03 11:21:02;;;;;;;2.00;1.90;;;20.80;99.90;;;;;;5032549;28;20476;-61
2023/09/03 11:23:30;;;;;;;2.47;1.90;;;20.90;99.90;;;;;;5037893;28;20524;-61
2023/09/03 11:26:05;;;;;;;2.97;2.43;;;21.00;99.90;;;;;;5036375;28;20499;-61
2023/09/03 11:28:37;;;;;;;1.90;1.70;;;21.20;99.90;;;;;;5034368;28;20557;-61
2023/09/03 11:31:05;;;;;;;1.90;1.80;;;21.30;99.90;;;;;;5036850;28;21027;-61
2023/09/03 11:33:33;;;;;;;2.80;1.77;;;21.40;99.90;;;;;;5040577;28;20526;-61
2023/09/03 11:36:01;;;;;;;2.27;1.97;;;21.50;99.90;;;;;;5040715;28;20486;-59
2023/09/03 11:38:32;;;;;;;3.23;2.10;;;21.60;99.90;;;;;;5036723;28;20468;-61
2023/09/03 11:41:00;;;;;;;2.00;1.90;;;21.60;99.90;;;;;;5036217;28;20858;-62
2023/09/03 11:43:30;;;;;;;2.10;2.00;;;21.70;99.90;;;;;;5031630;28;20927;-61
2023/09/03 11:46:00;;;;;;;2.43;1.70;;;21.70;99.90;;;;;;5037758;28;20574;-62
2023/09/03 11:48:32;;;;;;;4.23;1.97;;;21.80;99.90;;;;;;5032477;28;20664;-61
2023/09/03 11:51:00;;;;;;;2.00;1.83;;;21.90;99.90;;;;;;5038343;28;20486;-61
2023/09/03 11:53:39;;;;;;;2.20;2.00;;;22.10;99.90;;;;;;5024621;28;21033;-61
2023/09/03 11:56:11;;;;;;;2.03;1.73;;;22.20;99.90;;;;;;5034910;28;20579;-61
2023/09/03 11:58:40;;;;;;;2.33;1.93;;;22.30;99.90;;;;;;5030830;28;20473;-61
2023/09/03 12:01:12;;;;;;;2.13;1.93;;;22.40;99.90;;;;;;5027059;28;20475;-60
2023/09/03 12:03:40;;;;;;;2.10;1.83;;;22.40;99.90;;;;;;5024541;28;20467;-59
2023/09/03 12:06:08;;;;;;;2.00;1.83;;;22.40;99.90;;;;;;5022022;28;20490;-61
2023/09/03 12:08:36;;;;;;;2.03;1.93;;;22.30;99.90;;;;;;5026297;28;21177;-60
2023/09/03 12:11:05;;;;;;;2.10;1.90;;;22.30;99.90;;;;;;5018081;28;21049;-62
2023/09/03 12:13:34;;;;;;;2.27;1.97;;;22.30;99.90;;;;;;5027417;28;20518;-65
2023/09/03 12:16:07;;;;;;;3.63;2.10;;;22.30;99.90;;;;;;5016834;28;20495;-61
2023/09/03 12:18:37;;;;;;;3.07;2.00;;;22.20;99.90;;;;;;5023767;28;20894;-61
2023/09/03 12:21:07;;;;;;;3.33;2.20;;;22.20;99.90;;;;;;5021242;28;20555;-61
2023/09/03 12:23:37;;;;;;;3.10;2.03;;;22.30;99.90;;;;;;5020794;28;20513;-61
2023/09/03 12:26:05;;;;;;;1.87;1.70;;;22.40;99.90;;;;;;5028841;28;20617;-62
2023/09/03 12:28:36;;;;;;;2.00;1.80;;;22.40;99.90;;;;;;5030755;28;20550;-62
2023/09/03 12:31:05;;;;;;;3.17;2.37;;;22.50;99.90;;;;;;5022706;28;20481;-62
2023/09/03 12:33:49;;;;;;;1.60;1.50;;;22.60;99.90;;;;;;5034069;28;20576;-62
2023/09/03 12:36:18;;;;;;;2.63;1.97;;;22.70;99.90;;;;;;5029847;28;21153;-60
2023/09/03 12:38:53;;;;;;;1.80;1.70;;;22.80;99.90;;;;;;5033037;28;20566;-61
2023/09/03 12:41:21;;;;;;;3.90;1.63;;;22.90;99.90;;;;;;5035163;28;20474;-62
2023/09/03 12:43:49;;;;;;;3.20;1.70;;;22.90;99.90;;;;;;5034598;28;20557;-61
2023/09/03 12:46:17;;;;;;;1.93;1.73;;;23.00;99.90;;;;;;5030559;28;20920;-61
2023/09/03 12:48:47;;;;;;;2.33;1.83;;;23.00;99.90;;;;;;5033538;28;20471;-65
2023/09/03 12:51:16;;;;;;;2.03;1.80;;;23.10;99.90;;;;;;5030084;28;20963;-62
2023/09/03 12:53:45;;;;;;;2.00;1.90;;;23.10;99.90;;;;;;5036808;28;20486;-62
2023/09/03 12:56:14;;;;;;;1.73;1.53;;;23.20;99.90;;;;;;5032092;28;20494;-66
2023/09/03 12:58:42;;;;;;;1.77;1.57;;;23.30;99.90;;;;;;5028572;28;20474;-65